createdAt,value
2019-06-10T00:00:24.446Z,61.27
2019-06-10T00:02:55.584Z,62.68
2019-06-10T00:05:26.378Z,61.84
2019-06-10T00:07:56.583Z,62.36
2019-06-10T00:10:26.775Z,62.32
2019-06-10T00:12:57.360Z,62.16
2019-06-10T00:15:27.573Z,61.62
2019-06-10T00:18:18.956Z,61.91
2019-06-10T00:20:30.568Z,61.88
2019-06-10T00:23:02.526Z,61.47
2019-06-10T00:25:32.816Z,61.77
2019-06-10T00:28:05.665Z,61.32
2019-06-10T00:30:35.222Z,61.15
2019-06-10T00:33:06.480Z,61.66
2019-06-10T00:35:37.563Z,62.38
2019-06-10T00:38:09.337Z,62.66
2019-06-10T00:40:41.396Z,62.66
2019-06-10T00:43:13.550Z,62.88
2019-06-10T00:45:43.587Z,62.27
2019-06-10T00:48:25.178Z,61.66
2019-06-10T00:50:45.948Z,62.34
2019-06-10T00:53:16.194Z,62.16
2019-06-10T00:55:46.417Z,61.42
2019-06-10T00:58:17.067Z,61.63
2019-06-10T01:00:47.220Z,61.37
2019-06-10T01:03:17.362Z,61.72
2019-06-10T01:05:47.536Z,61.85
2019-06-10T01:08:18.028Z,61.87
2019-06-10T01:10:48.178Z,61.97
2019-06-10T01:13:20.635Z,61.58
2019-06-10T01:15:51.106Z,60.57
2019-06-10T01:18:34.888Z,61.79
2019-06-10T01:20:53.865Z,62.33
2019-06-10T01:23:24.008Z,62.27
2019-06-10T01:25:54.229Z,61.59
2019-06-10T01:28:24.761Z,61.67
2019-06-10T01:30:54.912Z,61.94
2019-06-10T01:33:25.206Z,61.99
2019-06-10T01:35:55.311Z,61.86
2019-06-10T01:38:25.388Z,62.83
2019-06-10T01:40:55.596Z,63.12
2019-06-10T01:43:26.144Z,62.53
2019-06-10T01:45:56.364Z,62.67
2019-06-10T01:48:40.584Z,62.68
2019-06-10T01:50:58.344Z,62.26
2019-06-10T01:53:31.207Z,62.71
2019-06-10T01:56:00.996Z,62.89
2019-06-10T01:58:31.957Z,62.54
2019-06-10T02:01:22.817Z,63.19
2019-06-10T02:03:51.879Z,62.74
2019-06-10T02:06:25.463Z,62.67
2019-06-10T02:08:54.751Z,62.92
2019-06-10T02:11:26.536Z,62.89
2019-06-10T02:13:57.115Z,63.67
2019-06-10T02:16:27.262Z,63.39
2019-06-10T02:19:00.798Z,63.46
2019-06-10T02:21:31.124Z,63.09
2019-06-10T02:24:01.214Z,63.29
2019-06-10T02:26:31.279Z,62.76
2019-06-10T02:29:01.777Z,63.47
2019-06-10T02:31:37.302Z,63.91
2019-06-10T02:34:05.734Z,62.98
2019-06-10T02:36:37.020Z,63.50
2019-06-10T02:39:09.122Z,63.80
2019-06-10T02:41:39.426Z,62.95
2019-06-10T02:44:09.921Z,63.01
2019-06-10T02:46:43.608Z,63.80
2019-06-10T02:49:23.234Z,63.90
2019-06-10T02:51:44.279Z,63.52
2019-06-10T02:54:18.092Z,63.39
2019-06-10T02:56:46.923Z,63.76
2019-06-10T02:59:18.294Z,64.11
2019-06-10T03:01:49.505Z,63.95
2019-06-10T03:04:22.169Z,63.55
2019-06-10T03:06:54.205Z,63.76
2019-06-10T03:09:27.480Z,63.98
2019-06-10T03:11:55.212Z,62.80
2019-06-10T03:14:28.105Z,61.94
2019-06-10T03:17:00.188Z,62.25
2019-06-10T03:19:46.627Z,61.90
2019-06-10T03:22:02.722Z,61.14
2019-06-10T03:24:32.956Z,61.50
2019-06-10T03:27:03.138Z,61.36
2019-06-10T03:29:33.475Z,62.50
2019-06-10T03:32:05.078Z,61.92
2019-06-10T03:34:41.667Z,62.92
2019-06-10T03:37:07.671Z,64.06
2019-06-10T03:39:37.915Z,63.24
2019-06-10T03:42:08.789Z,63.26
2019-06-10T03:44:39.173Z,63.56
2019-06-10T03:47:09.310Z,63.14
2019-06-10T03:49:52.358Z,62.59
2019-06-10T03:52:14.572Z,62.46
2019-06-10T03:54:45.756Z,62.43
2019-06-10T03:57:17.099Z,63.03
2019-06-10T03:59:48.130Z,62.47
2019-06-10T04:02:19.507Z,61.59
2019-06-10T04:04:49.707Z,62.72
2019-06-10T04:07:20.942Z,60.46
2019-06-10T04:09:52.621Z,60.19
2019-06-10T04:12:24.713Z,59.25
2019-06-10T04:14:55.062Z,58.33
2019-06-10T04:17:26.988Z,59.23
2019-06-10T04:20:09.350Z,57.89
2019-06-10T04:22:29.169Z,59.12
2019-06-10T04:24:59.343Z,59.30
2019-06-10T04:27:30.047Z,57.50
2019-06-10T04:30:03.098Z,58.99
2019-06-10T04:32:32.403Z,56.97
2019-06-10T04:35:02.785Z,57.75
2019-06-10T04:37:33.012Z,58.23
2019-06-10T04:40:03.912Z,58.17
2019-06-10T04:42:34.046Z,57.97
2019-06-10T04:45:05.248Z,56.50
2019-06-10T04:47:35.390Z,55.52
2019-06-10T04:50:18.442Z,55.55
2019-06-10T04:52:37.869Z,55.93
2019-06-10T04:55:12.519Z,55.98
2019-06-10T04:57:43.118Z,56.71
2019-06-10T05:00:14.883Z,56.17
2019-06-10T05:02:44.653Z,56.63
2019-06-10T05:05:15.138Z,57.53
2019-06-10T05:07:45.278Z,56.26
2019-06-10T05:10:17.379Z,55.87
2019-06-10T05:12:47.528Z,56.06
2019-06-10T05:15:19.430Z,56.49
2019-06-10T05:17:52.669Z,55.44
2019-06-10T05:20:39.988Z,55.50
2019-06-10T05:22:54.850Z,55.25
2019-06-10T05:25:25.717Z,56.14
2019-06-10T05:27:57.995Z,54.64
2019-06-10T05:30:29.513Z,54.78
2019-06-10T05:33:00.175Z,54.66
2019-06-10T05:35:31.575Z,55.04
2019-06-10T05:38:02.517Z,55.04
2019-06-10T05:40:34.104Z,56.10
2019-06-10T05:43:04.695Z,56.10
2019-06-10T05:45:35.337Z,55.34
2019-06-10T05:48:05.766Z,54.93
2019-06-10T05:50:35.918Z,55.59
2019-06-10T05:53:06.123Z,55.39
2019-06-10T05:55:36.241Z,54.95
2019-06-10T05:58:06.444Z,55.84
2019-06-10T06:00:37.228Z,55.07
2019-06-10T06:03:07.423Z,55.88
2019-06-10T06:05:38.106Z,55.78
2019-06-10T06:08:12.388Z,55.79
2019-06-10T06:10:43.203Z,55.86
2019-06-10T06:13:13.512Z,56.07
2019-06-10T06:15:44.597Z,55.89
2019-06-10T06:18:14.799Z,56.40
2019-06-10T06:20:45.016Z,56.95
2019-06-10T06:23:15.181Z,57.65
2019-06-10T06:25:47.188Z,57.88
2019-06-10T06:28:17.710Z,56.83
2019-06-10T06:30:48.329Z,58.05
2019-06-10T06:33:18.553Z,56.93
2019-06-10T06:35:48.753Z,57.08
2019-06-10T06:38:18.904Z,56.41
2019-06-10T06:40:49.057Z,56.77
2019-06-10T06:43:19.261Z,56.27
2019-06-10T06:45:49.561Z,57.00
2019-06-10T06:48:19.700Z,56.31
2019-06-10T06:51:01.992Z,57.11
2019-06-10T06:53:32.249Z,57.47
2019-06-10T06:55:55.923Z,55.94
2019-06-10T06:58:25.346Z,55.23
2019-06-10T07:01:07.418Z,56.24
2019-06-10T07:03:28.020Z,55.68
2019-06-10T07:05:58.185Z,55.58
2019-06-10T07:08:30.825Z,55.13
2019-06-10T07:11:03.306Z,54.30
2019-06-10T07:13:37.060Z,55.42
2019-06-10T07:16:07.020Z,54.89
2019-06-10T07:18:41.777Z,54.95
2019-06-10T07:21:09.110Z,53.89
2019-06-10T07:23:42.636Z,53.08
2019-06-10T07:26:12.714Z,52.26
2019-06-10T07:28:47.088Z,51.11
2019-06-10T07:31:23.791Z,50.44
2019-06-10T07:33:48.638Z,49.08
2019-06-10T07:36:19.412Z,47.41
2019-06-10T07:38:49.571Z,45.56
2019-06-10T07:41:23.083Z,45.08
2019-06-10T07:43:53.366Z,45.28
2019-06-10T07:46:24.986Z,43.43
2019-06-10T07:48:56.665Z,42.86
2019-06-10T07:51:29.001Z,41.50
2019-06-10T07:53:59.039Z,40.92
2019-06-10T07:56:33.793Z,41.25
2019-06-10T07:59:03.875Z,40.82
2019-06-10T08:01:35.092Z,40.80
2019-06-10T08:04:05.865Z,40.45
2019-06-10T08:06:39.792Z,39.81
2019-06-10T08:09:12.483Z,39.89
2019-06-10T08:11:46.521Z,39.74
2019-06-10T08:14:14.476Z,38.94
2019-06-10T08:16:46.705Z,40.11
2019-06-10T08:19:30.286Z,41.19
2019-06-10T08:21:49.517Z,41.95
2019-06-10T08:24:22.113Z,42.13
2019-06-10T08:26:53.028Z,42.07
2019-06-10T08:29:23.601Z,41.46
2019-06-10T08:31:54.217Z,42.49
2019-06-10T08:34:26.767Z,44.05
2019-06-10T08:36:57.036Z,44.63
2019-06-10T08:39:27.391Z,45.02
2019-06-10T08:41:57.687Z,45.91
2019-06-10T08:44:27.935Z,45.05
2019-06-10T08:47:03.096Z,46.40
2019-06-10T08:49:33.659Z,46.70
2019-06-10T08:52:03.932Z,46.96
2019-06-10T08:54:34.362Z,46.67
2019-06-10T08:57:04.772Z,48.27
2019-06-10T08:59:34.920Z,48.81
2019-06-10T09:02:05.847Z,48.91
2019-06-10T09:04:36.073Z,47.41
2019-06-10T09:07:06.366Z,47.99
2019-06-10T09:09:38.804Z,48.17
2019-06-10T09:12:08.445Z,49.32
2019-06-10T09:14:38.699Z,48.35
2019-06-10T09:17:12.498Z,48.52
2019-06-10T09:19:47.288Z,48.60
2019-06-10T09:22:15.717Z,48.44
2019-06-10T09:24:49.447Z,50.23
2019-06-10T09:27:17.565Z,50.18
2019-06-10T09:29:49.806Z,49.47
2019-06-10T09:32:23.047Z,48.79
2019-06-10T09:34:57.700Z,48.75
2019-06-10T09:37:28.706Z,48.87
2019-06-10T09:39:59.865Z,49.22
2019-06-10T09:42:30.458Z,49.38
2019-06-10T09:45:02.570Z,49.61
2019-06-10T09:47:34.743Z,50.07
2019-06-10T09:50:07.493Z,48.81
2019-06-10T09:52:37.815Z,49.39
2019-06-10T09:55:12.805Z,49.55
2019-06-10T09:57:47.206Z,49.63
2019-06-10T10:00:22.786Z,49.57
2019-06-10T10:02:56.108Z,50.27
2019-06-10T10:05:26.481Z,48.67
2019-06-10T10:07:57.420Z,48.50
2019-06-10T10:10:35.425Z,49.38
2019-06-10T10:13:07.472Z,49.00
2019-06-10T10:15:38.263Z,48.58
2019-06-10T10:18:13.380Z,47.92
2019-06-10T10:20:46.828Z,49.00
2019-06-10T10:23:16.155Z,48.84
2019-06-10T10:25:47.936Z,49.10
2019-06-10T10:28:18.435Z,46.70
2019-06-10T10:30:52.726Z,47.42
2019-06-10T10:33:27.081Z,45.27
2019-06-10T10:35:55.390Z,45.06
2019-06-10T10:38:25.573Z,44.59
2019-06-10T10:40:59.003Z,43.49
2019-06-10T10:43:33.274Z,43.69
2019-06-10T10:46:04.173Z,42.37
2019-06-10T10:48:33.521Z,43.35
2019-06-10T10:51:03.948Z,42.41
2019-06-10T10:53:34.363Z,43.27
2019-06-10T10:56:04.853Z,43.41
2019-06-10T10:58:35.241Z,44.42
2019-06-10T11:01:05.458Z,44.77
2019-06-10T11:03:35.995Z,44.43
2019-06-10T11:06:06.230Z,43.79
2019-06-10T11:08:36.457Z,44.41
2019-06-10T11:11:06.736Z,44.57
2019-06-10T11:13:37.977Z,44.69
2019-06-10T11:16:08.276Z,44.64
2019-06-10T11:18:39.071Z,43.67
2019-06-10T11:21:10.168Z,45.01
2019-06-10T11:23:43.226Z,44.08
2019-06-10T11:26:13.046Z,43.82
2019-06-10T11:28:43.315Z,45.06
2019-06-10T11:31:14.236Z,46.70
2019-06-10T11:33:46.918Z,46.90
2019-06-10T11:36:17.323Z,43.92
2019-06-10T11:38:48.565Z,44.50
2019-06-10T11:41:19.525Z,46.06
2019-06-10T11:43:52.947Z,42.97
2019-06-10T11:46:21.698Z,43.48
2019-06-10T11:48:55.597Z,44.06
2019-06-10T11:51:24.084Z,44.44
2019-06-10T11:53:56.877Z,44.75
2019-06-10T11:56:27.442Z,45.42
2019-06-10T11:58:59.186Z,44.00
2019-06-10T12:01:30.903Z,44.94
2019-06-10T12:04:04.177Z,46.19
2019-06-10T12:06:34.210Z,44.17
2019-06-10T12:09:08.125Z,43.26
2019-06-10T12:11:38.498Z,43.63
2019-06-10T12:14:08.831Z,43.76
2019-06-10T12:19:13.504Z,43.87
2019-06-10T12:21:43.665Z,43.71
2019-06-10T12:24:14.956Z,44.55
2019-06-10T12:26:45.011Z,43.50
2019-06-10T12:29:15.179Z,44.14
2019-06-10T12:31:45.319Z,44.76
2019-06-10T12:34:15.756Z,44.67
2019-06-10T12:36:45.877Z,44.95
2019-06-10T12:39:17.482Z,44.87
2019-06-10T12:41:48.469Z,45.04
2019-06-10T12:44:18.638Z,45.45
2019-06-10T12:46:48.776Z,44.61
2019-06-10T12:49:19.380Z,44.58
2019-06-10T12:51:52.919Z,45.12
2019-06-10T12:54:23.125Z,45.55
2019-06-10T12:56:54.870Z,45.49
2019-06-10T12:59:26.277Z,45.31
2019-06-10T13:01:58.079Z,45.40
2019-06-10T13:04:29.057Z,44.28
2019-06-10T13:07:00.327Z,44.56
2019-06-10T13:09:32.713Z,43.89
2019-06-10T13:12:02.203Z,45.51
2019-06-10T13:14:32.684Z,45.19
2019-06-10T13:17:05.604Z,44.90
2019-06-10T13:19:35.002Z,45.85
2019-06-10T13:22:07.000Z,45.20
2019-06-10T13:24:37.109Z,42.91
2019-06-10T13:27:08.337Z,41.58
2019-06-10T13:29:38.833Z,42.78
2019-06-10T13:32:08.978Z,43.37
2019-06-10T13:34:42.225Z,44.40
2019-06-10T13:37:14.946Z,43.89
2019-06-10T13:39:43.312Z,43.67
2019-06-10T13:42:14.503Z,44.17
2019-06-10T13:44:45.110Z,44.52
2019-06-10T13:47:18.802Z,44.54
2019-06-10T13:49:53.110Z,44.95
2019-06-10T13:52:23.345Z,43.26
2019-06-10T13:54:54.036Z,43.38
2019-06-10T13:57:25.109Z,42.66
2019-06-10T13:59:55.616Z,42.32
2019-06-10T14:02:25.771Z,42.82
2019-06-10T14:04:57.715Z,43.03
2019-06-10T14:07:27.884Z,43.29
2019-06-10T14:09:58.052Z,43.34
2019-06-10T14:12:28.141Z,42.65
2019-06-10T14:14:58.321Z,42.44
2019-06-10T14:17:28.620Z,42.08
2019-06-10T14:19:59.264Z,42.69
2019-06-10T14:22:32.753Z,41.91
2019-06-10T14:25:03.894Z,42.18
2019-06-10T14:27:34.246Z,42.78
2019-06-10T14:30:09.651Z,41.64
2019-06-10T14:32:42.563Z,40.86
2019-06-10T14:35:16.296Z,40.51
2019-06-10T14:37:45.615Z,41.81
2019-06-10T14:40:21.109Z,41.05
2019-06-10T14:42:48.399Z,41.20
2019-06-10T14:45:19.162Z,41.52
2019-06-10T14:47:49.307Z,41.10
2019-06-10T14:50:20.016Z,41.01
2019-06-10T14:52:50.184Z,41.07
2019-06-10T14:55:23.083Z,41.51
2019-06-10T14:57:53.939Z,41.50
2019-06-10T15:00:24.236Z,41.63
2019-06-10T15:02:54.346Z,41.02
2019-06-10T15:05:24.856Z,41.71
2019-06-10T15:07:55.069Z,41.22
2019-06-10T15:10:25.236Z,41.27
2019-06-10T15:12:55.520Z,40.83
2019-06-10T15:15:25.838Z,41.45
2019-06-10T15:17:56.118Z,41.51
2019-06-10T15:20:26.670Z,42.31
2019-06-10T15:22:57.052Z,42.81
2019-06-10T15:25:28.305Z,43.63
2019-06-10T15:27:58.828Z,42.61
2019-06-10T15:30:31.439Z,42.47
2019-06-10T15:33:03.025Z,42.96
2019-06-10T15:35:33.481Z,43.40
2019-06-10T15:38:04.252Z,43.22
2019-06-10T15:40:36.084Z,42.52
2019-06-10T15:43:06.522Z,42.68
2019-06-10T15:45:37.157Z,43.03
2019-06-10T15:48:07.374Z,42.73
2019-06-10T15:50:37.894Z,42.96
2019-06-10T15:53:08.210Z,43.28
2019-06-10T15:56:05.316Z,42.76
2019-06-10T15:58:12.531Z,42.68
2019-06-10T16:00:44.020Z,43.20
2019-06-10T16:03:17.121Z,43.57
2019-06-10T16:05:46.750Z,43.88
2019-06-10T16:08:18.563Z,43.92
2019-06-10T16:10:49.102Z,44.06
2019-06-10T16:13:21.331Z,43.45
2019-06-10T16:15:53.748Z,43.44
2019-06-10T16:18:27.762Z,43.14
2019-06-10T16:20:56.391Z,43.27
2019-06-10T16:23:27.000Z,43.45
2019-06-10T16:25:57.391Z,43.52
2019-06-10T16:28:27.942Z,43.55
2019-06-10T16:30:58.300Z,43.66
2019-06-10T16:33:28.725Z,43.63
2019-06-10T16:35:59.316Z,43.84
2019-06-10T16:38:29.968Z,43.64
2019-06-10T16:41:03.211Z,43.95
2019-06-10T16:43:33.549Z,44.22
2019-06-10T16:46:04.407Z,44.23
2019-06-10T16:48:34.919Z,43.86
2019-06-10T16:51:05.374Z,44.11
2019-06-10T16:53:35.986Z,44.01
2019-06-10T16:56:06.419Z,43.88
2019-06-10T16:58:37.058Z,43.79
2019-06-10T17:01:07.585Z,43.97
2019-06-10T17:03:42.312Z,43.82
2019-06-10T17:06:14.070Z,43.94
2019-06-10T17:08:44.566Z,44.04
2019-06-10T17:11:15.125Z,43.94
2019-06-10T17:13:45.658Z,44.08
2019-06-10T17:16:16.216Z,43.78
2019-06-10T17:18:46.823Z,44.32
2019-06-10T17:21:19.401Z,44.20
2019-06-10T17:23:52.325Z,45.00
2019-06-10T17:26:27.944Z,45.43
2019-06-10T17:28:54.362Z,45.67
2019-06-10T17:31:28.486Z,45.66
2019-06-10T17:33:57.050Z,45.71
2019-06-10T17:36:30.572Z,46.01
2019-06-10T17:38:59.862Z,46.35
2019-06-10T17:41:34.476Z,46.04
2019-06-10T17:44:02.822Z,45.95
2019-06-10T17:46:35.202Z,46.34
2019-06-10T17:49:05.763Z,46.40
2019-06-10T17:51:36.503Z,46.39
2019-06-10T17:54:09.699Z,46.53
2019-06-10T17:56:42.683Z,46.62
2019-06-10T17:59:12.917Z,46.86
2019-06-10T18:01:45.078Z,46.81
2019-06-10T18:04:15.663Z,46.99
2019-06-10T18:06:48.921Z,47.12
2019-06-10T18:09:19.847Z,47.15
2019-06-10T18:11:50.453Z,47.71
2019-06-10T18:14:22.942Z,47.87
2019-06-10T18:16:53.254Z,48.57
2019-06-10T18:19:24.240Z,48.19
2019-06-10T18:21:55.151Z,48.37
2019-06-10T18:24:27.496Z,47.77
2019-06-10T18:26:58.048Z,48.58
2019-06-10T18:29:29.172Z,48.53
2019-06-10T18:31:59.827Z,48.41
2019-06-10T18:34:32.445Z,48.75
2019-06-10T18:37:02.934Z,49.36
2019-06-10T18:39:35.677Z,49.39
2019-06-10T18:42:06.350Z,49.40
2019-06-10T18:44:37.539Z,49.42
2019-06-10T18:47:08.209Z,49.99
2019-06-10T18:49:38.749Z,49.53
2019-06-10T18:52:12.518Z,49.15
2019-06-10T18:54:43.492Z,49.11
2019-06-10T18:57:14.442Z,48.76
2019-06-10T18:59:48.355Z,49.00
2019-06-10T19:02:19.127Z,49.22
2019-06-10T19:04:49.616Z,48.93
2019-06-10T19:07:22.704Z,49.13
2019-06-10T19:09:54.348Z,49.64
2019-06-10T19:12:24.880Z,49.25
2019-06-10T19:14:55.423Z,49.34
2019-06-10T19:17:27.183Z,49.25
2019-06-10T19:19:59.497Z,48.80
2019-06-10T19:22:30.284Z,48.73
2019-06-10T19:25:03.496Z,48.21
2019-06-10T19:27:35.152Z,48.21
2019-06-10T19:30:10.227Z,48.57
2019-06-10T19:32:44.219Z,48.33
2019-06-10T19:35:13.992Z,48.65
2019-06-10T19:37:44.808Z,48.71
2019-06-10T19:40:16.474Z,48.73
2019-06-10T19:42:48.023Z,48.50
2019-06-10T19:45:19.326Z,49.31
2019-06-10T19:47:52.154Z,48.85
2019-06-10T19:50:22.084Z,49.09
2019-06-10T19:52:53.098Z,49.08
2019-06-10T19:55:23.759Z,49.11
2019-06-10T19:57:54.504Z,50.35
2019-06-10T20:00:25.588Z,50.34
2019-06-10T20:02:56.271Z,50.50
2019-06-10T20:05:29.674Z,51.14
2019-06-10T20:08:02.821Z,50.91
2019-06-10T20:10:33.988Z,51.52
2019-06-10T20:13:05.351Z,51.42
2019-06-10T20:15:35.978Z,51.35
2019-06-10T20:18:06.623Z,51.81
2019-06-10T20:20:38.276Z,51.84
2019-06-10T20:23:09.413Z,52.27
2019-06-10T20:25:44.314Z,52.01
2019-06-10T20:28:14.456Z,52.14
2019-06-10T20:30:47.775Z,52.22
2019-06-10T20:33:18.937Z,52.45
2019-06-10T20:35:49.854Z,52.48
2019-06-10T20:38:22.285Z,52.95
2019-06-10T20:40:54.217Z,52.73
2019-06-10T20:43:25.852Z,52.88
2019-06-10T20:45:58.250Z,52.61
2019-06-10T20:48:29.314Z,52.43
2019-06-10T20:51:02.665Z,52.64
2019-06-10T20:53:34.020Z,52.50
2019-06-10T20:56:05.442Z,52.93
2019-06-10T20:58:36.475Z,53.10
2019-06-10T21:01:06.868Z,51.11
2019-06-10T21:03:38.763Z,51.14
2019-06-10T21:06:13.034Z,52.36
2019-06-10T21:08:47.708Z,52.56
2019-06-10T21:11:16.723Z,52.89
2019-06-10T21:13:50.748Z,53.04
2019-06-10T21:16:19.362Z,52.70
2019-06-10T21:18:54.636Z,53.73
2019-06-10T21:21:22.702Z,53.56
2019-06-10T21:23:54.125Z,53.14
2019-06-10T21:26:26.649Z,53.19
2019-06-10T21:28:57.485Z,50.85
2019-06-10T21:31:29.580Z,52.48
2019-06-10T21:34:02.661Z,52.07
2019-06-10T21:36:32.219Z,53.37
2019-06-10T21:39:03.587Z,53.08
2019-06-10T21:41:34.652Z,53.26
2019-06-10T21:44:05.525Z,53.25
2019-06-10T21:46:36.006Z,53.21
2019-06-10T21:49:06.535Z,53.70
2019-06-10T21:51:37.042Z,53.92
2019-06-10T21:54:07.523Z,53.83
2019-06-10T21:56:37.997Z,54.07
2019-06-10T21:59:08.285Z,54.27
2019-06-10T22:01:38.845Z,54.22
2019-06-10T22:04:13.224Z,54.00
2019-06-10T22:06:43.911Z,53.92
2019-06-10T22:09:14.755Z,54.66
2019-06-10T22:11:47.975Z,54.59
2019-06-10T22:14:18.359Z,54.39
2019-06-10T22:16:50.309Z,54.20
2019-06-10T22:19:23.165Z,54.07
2019-06-10T22:21:53.691Z,54.52
2019-06-10T22:24:26.379Z,54.34
2019-06-10T22:26:55.691Z,54.79
2019-06-10T22:29:26.152Z,54.69
2019-06-10T22:31:57.230Z,54.26
2019-06-10T22:34:29.369Z,54.63
2019-06-10T22:36:59.574Z,54.35
2019-06-10T22:39:32.439Z,53.68
2019-06-10T22:42:03.074Z,54.42
2019-06-10T22:44:33.170Z,53.87
2019-06-10T22:47:03.492Z,54.84
2019-06-10T22:49:33.630Z,54.78
2019-06-10T22:52:03.812Z,54.20
2019-06-10T22:54:35.399Z,54.78
2019-06-10T22:57:04.649Z,54.28
2019-06-10T22:59:34.880Z,54.88
2019-06-10T23:02:05.006Z,54.83
2019-06-10T23:04:35.140Z,54.70
2019-06-10T23:07:05.464Z,54.93
2019-06-10T23:09:36.359Z,55.68
2019-06-10T23:12:06.638Z,55.06
2019-06-10T23:14:36.754Z,55.59
2019-06-10T23:17:06.967Z,55.76
2019-06-10T23:19:39.015Z,55.91
2019-06-10T23:22:09.158Z,56.05
2019-06-10T23:24:39.641Z,56.04
2019-06-10T23:27:09.816Z,56.35
2019-06-10T23:29:43.250Z,55.45
2019-06-10T23:32:13.456Z,55.55
2019-06-10T23:34:43.692Z,55.76
2019-06-10T23:37:13.814Z,56.47
2019-06-10T23:39:44.146Z,56.83
2019-06-10T23:42:14.368Z,56.70
2019-06-10T23:44:44.455Z,57.09
2019-06-10T23:47:14.588Z,56.97
2019-06-10T23:49:44.711Z,57.60
2019-06-10T23:52:14.859Z,57.52
2019-06-10T23:54:45.195Z,57.35
2019-06-10T23:57:15.455Z,58.16
2019-06-10T23:59:45.671Z,57.69
